• Join FlightAware (Why Join?)
  • Login
  • US Flag 
 
01:24AM EST


 

Airport Tracker/Info


-or-


 

Live Flight TrackerFlight Track Log ✈ AAL672 ✈ 25-Aug-2013 ✈ TIST / STT - KMIA

Flight Track Log - Related Links

Times and Time Zones

All times are in EDT time to prevent confusion due to time zone crossing. See the AAL672 flight status page for this flight to view local times or setup timezone preferences in your user account.

Time Position Orientation Groundspeed Altitude Reporting Facility
EDT Latitude Longitude Course Direction KTS MPH feet Rate Location/Type
04:20PM 18.3333 -64.9500 281° West 170 196 1,100  Level San Juan Center
04:21PM 18.2833 -64.9333 162° South 200 230 3,000 2,400 Climbing San Juan Center
04:22PM 18.2500 -65.0167 247° West 290 334 6,000 3,000 Climbing San Juan Center
04:23PM 18.2990 -65.3202 283° West  Level FlightAware Approximate
04:23PM 18.2500 -65.1000 270° West 270 311 9,100  Level San Juan Center
04:24PM 18.3242 -65.4376 282° West  Level FlightAware Approximate
04:24PM 18.2833 -65.1833 293° West 320 368 10,400  Level San Juan Center
04:25PM 18.3477 -65.5553 282° West  Level FlightAware Approximate
04:25PM 18.3500 -65.2500 316° Northwest 360 414 12,400  Level San Juan Center
04:26PM 18.3764 -65.6714 281° West  Level FlightAware Approximate
04:26PM 18.4333 -65.3167 323° Northwest 360 414 14,400  Level San Juan Center
04:27PM 18.5000 -65.3833 317° Northwest 390 449 16,000 1,680 Climbing San Juan Center
04:28PM 18.5500 -65.4833 298° West 390 449 17,900 1,680 Climbing San Juan Center
04:29PM 18.6333 -65.5833 311° West 420 483 19,500 1,440 Climbing San Juan Center
04:30PM 18.6833 -65.6833 298° West 410 472 20,800 1,560 Climbing San Juan Center
04:31PM 18.7500 -65.7833 305° West 430 495 22,700 1,740 Climbing San Juan Center
04:32PM 18.8333 -65.9000 307° West 440 506 24,400 1,620 Climbing San Juan Center
04:33PM 18.9000 -66.0000 305° West 460 529 26,000 1,620 Climbing San Juan Center
04:34PM 18.9833 -66.1167 307° West 470 541 27,700 1,560 Climbing San Juan Center
04:36PM 19.0500 -66.2333 301° West 470 541 29,200 1,140 Climbing San Juan Center
04:37PM 19.1333 -66.3500 307° West 480 552 30,100 1,260 Climbing San Juan Center
04:38PM 19.2167 -66.4667 307° West 490 564 31,800 1,620 Climbing San Juan Center
04:39PM 19.2833 -66.5833 301° West 470 541 33,400 1,560 Climbing San Juan Center
04:40PM 19.3500 -66.7000 301° West 480 552 35,000 1,260 Climbing San Juan Center
04:41PM 19.4333 -66.8167 307° West 470 541 36,000 480 Climbing San Juan Center
04:42PM 19.5167 -66.9333 307° West 470 541 36,000  Level San Juan Center
04:44PM 19.6500 -67.1500 303° West 460 529 36,000  Level San Juan Center
04:45PM 19.7000 -67.2500 298° West 440 506 36,000  Level San Juan Center
04:46PM 19.7667 -67.3667 301° West 450 518 36,000  Level San Juan Center
04:47PM 19.8500 -67.4833 307° West 450 518 36,000  Level San Juan Center
04:48PM 19.9167 -67.5833 305° West 460 529 36,000  Level San Juan Center
04:49PM 19.9833 -67.7000 301° West 450 518 36,000  Level San Juan Center
04:50PM 20.0667 -67.8000 312° West 450 518 36,000  Level San Juan Center
04:51PM 20.1333 -67.9167 301° West 460 529 36,000  Level San Juan Center
04:52PM 20.2436 -68.0842 305° West 562 647 36,000  Level Miami Center
04:53PM 20.3042 -68.1992 299° West 473 544 36,000  Level Miami Center
04:54PM 20.3647 -68.3147 299° West 468 539 36,000  Level Miami Center
04:55PM 20.4233 -68.4347 298° West 462 532 36,000  Level Miami Center
04:56PM 20.4817 -68.5503 298° West 457 526 36,000  Level Miami Center
04:57PM 20.5378 -68.6683 297° West 457 526 36,000  Level Miami Center
04:58PM 20.5981 -68.7864 299° West 457 526 36,000  Level Miami Center
04:59PM 20.6564 -68.9069 297° West 457 526 36,000  Level Miami Center
05:00PM 20.7147 -69.0275 297° West 457 526 36,000  Level Miami Center
05:01PM 20.7706 -69.1481 296° West 457 526 36,000  Level Miami Center
05:02PM 20.8286 -69.2667 298° West 457 526 36,000  Level Miami Center
05:03PM 20.8844 -69.3878 296° West 457 526 36,000  Level Miami Center
05:04PM 20.9422 -69.5064 298° West 457 526 36,000  Level Miami Center
05:05PM 20.9978 -69.6233 297° West 457 526 36,000  Level Miami Center
05:06PM 21.0533 -69.7403 297° West 451 519 36,000  Level Miami Center
05:07PM 21.1108 -69.8614 297° West 451 519 36,000  Level Miami Center
05:08PM 21.1683 -69.9786 298° West 451 519 36,000  Level Miami Center
05:09PM 21.2236 -70.0981 296° West 457 526 36,000  Level Miami Center
05:10PM 21.2831 -70.2172 298° West 457 526 36,000  Level Miami Center
05:11PM 21.3403 -70.3369 297° West 457 526 36,000  Level Miami Center
05:12PM 21.3994 -70.4564 298° West 457 526 36,000  Level Miami Center
05:13PM 21.4544 -70.5764 296° West 457 526 36,000  Level Miami Center
05:14PM 21.5136 -70.7006 297° West 457 526 36,000  Level Miami Center
05:15PM 21.5708 -70.8228 297° West 457 526 36,000  Level Miami Center
05:16PM 21.6300 -70.9494 297° West 457 526 36,000  Level Miami Center
05:17PM 21.6889 -71.0717 297° West 462 532 36,000  Level Miami Center
05:18PM 21.7458 -71.1989 296° West 462 532 36,000  Level Miami Center
05:19PM 21.8044 -71.3236 297° West 462 532 36,000  Level Miami Center
05:20PM 21.8611 -71.4464 296° West 462 532 36,000  Level Miami Center
05:21PM 21.9153 -71.5672 296° West 462 532 36,000  Level Miami Center
05:22PM 21.9717 -71.6903 296° West 456 525 36,000  Level Miami Center
05:23PM 22.0258 -71.8089 296° West 456 525 36,000  Level Miami Center
05:24PM 22.0819 -71.9300 297° West 456 525 36,000  Level Miami Center
05:25PM 22.1358 -72.0489 296° West 456 525 36,000  Level Miami Center
05:26PM 22.2031 -72.1944 297° West 456 525 36,000  Level Miami Center
05:27PM 22.2569 -72.3158 296° West 456 525 36,000  Level Miami Center
05:28PM 22.3147 -72.4394 297° West 456 525 36,000  Level Miami Center
05:29PM 22.3706 -72.5611 296° West 456 525 36,000  Level Miami Center
05:30PM 22.4261 -72.6872 296° West 461 531 36,000  Level Miami Center
05:31PM 22.4794 -72.8089 295° West 455 524 36,000  Level Miami Center
05:32PM 22.5350 -72.9331 296° West 455 524 36,000  Level Miami Center
05:33PM 22.5906 -73.0597 295° West 455 524 36,000  Level Miami Center
05:34PM 22.6411 -73.1683 297° West 456 525 36,000  Level Miami Center
05:35PM 22.6986 -73.2950 296° West 456 525 36,000  Level Miami Center
05:36PM 22.7536 -73.4219 295° West 461 531 36,000  Level Miami Center
05:37PM 22.8108 -73.5489 296° West 461 531 36,000  Level Miami Center
05:38PM 22.8658 -73.6758 295° West 461 531 36,000  Level Miami Center
05:39PM 22.9186 -73.8008 295° West 461 531 36,000  Level Miami Center
05:40PM 22.9753 -73.9189 298° West 455 524 36,000  Level Miami Center
05:41PM 23.0256 -74.0419 294° West 450 518 36,000  Level Miami Center
05:42PM 23.0800 -74.1583 297° West 445 512 36,000  Level Miami Center
05:43PM 23.1300 -74.2814 294° West 439 505 36,000  Level Miami Center
05:44PM 23.1800 -74.3978 295° West 439 505 36,000  Level Miami Center
05:45PM 23.2342 -74.5189 296° West 439 505 36,000  Level Miami Center
05:46PM 23.2861 -74.6356 296° West 439 505 36,000  Level Miami Center
05:47PM 23.3381 -74.7567 295° West 439 505 36,000  Level Miami Center
05:48PM 23.3983 -74.8869 297° West 439 505 36,000  Level Miami Center
05:49PM 23.4481 -75.0064 294° West 439 505 36,000  Level Miami Center
05:50PM 23.4997 -75.1303 294° West 439 505 36,000  Level Miami Center
05:51PM 23.5489 -75.2361 297° West 439 505 36,000  Level Miami Center
05:52PM 23.6003 -75.3556 295° West 439 505 36,000  Level Miami Center
05:53PM 23.6536 -75.4750 296° West 439 505 36,000  Level Miami Center
05:54PM 23.7092 -75.5925 297° West 439 505 36,000  Level Miami Center
05:55PM 23.7603 -75.7147 295° West 439 505 36,000  Level Miami Center
05:56PM 23.8111 -75.8344 295° West 439 505 36,000  Level Miami Center
05:57PM 23.8622 -75.9500 296° West 439 505 36,000  Level Miami Center
05:58PM 23.9108 -76.0700 294° West 439 505 36,000  Level Miami Center
05:59PM 23.9617 -76.1881 295° West 439 505 36,000  Level Miami Center
06:00PM 24.0103 -76.3128 293° West 439 505 36,000  Level Miami Center
06:01PM 24.0608 -76.4311 295° West 439 505 36,000  Level Miami Center
06:02PM 24.1133 -76.5536 295° West 439 505 36,000  Level Miami Center
06:03PM 24.1617 -76.6744 294° West 439 505 36,000  Level Miami Center
06:04PM 24.2139 -76.7950 295° West 439 505 36,000  Level Miami Center
06:05PM 24.2619 -76.9181 293° West 439 505 36,000  Level Miami Center
06:06PM 24.3058 -77.0436 291° West 439 505 36,000  Level Miami Center
06:07PM 24.2806 -77.1733 258° West 421 484 36,000  Level Miami Center
06:08PM 24.2008 -77.2872 233° Southwest 416 479 36,000  Level Miami Center
06:09PM 24.1753 -77.4169 258° West 435 501 36,000  Level Miami Center
06:10PM 24.2292 -77.5311 297° West 402 463 36,000  Level Miami Center
06:11PM 24.2933 -77.6569 299° West 412 474 36,000  Level Miami Center
06:12PM 24.3575 -77.7736 301° West 427 491 36,000  Level Miami Center
06:13PM 24.4194 -77.8906 300° West 440 506 36,000  Level Miami Center
06:14PM 24.4814 -78.0050 301° West 446 513 36,000  Level Miami Center
06:15PM 24.5450 -78.1244 300° West 446 513 36,000  Level Miami Center
06:16PM 24.6069 -78.2347 302° West 440 506 36,000  Level Miami Center
06:17PM 24.6706 -78.3500 301° West 440 506 36,000  Level Miami Center
06:18PM 24.7300 -78.4603 301° West 440 506 36,000 -480 Level Miami Center
06:19PM 24.7914 -78.5781 300° West 440 506 35,100 -1,740 Descending Miami Center
06:20PM 24.8528 -78.6933 300° West 440 506 32,600 -2,640 Descending Miami Center
06:21PM 24.9139 -78.8111 300° West 440 506 29,900 -2,520 Descending Miami Center
06:22PM 24.9750 -78.9267 300° West 440 506 27,600 -2,160 Descending Miami Center
06:23PM 25.0319 -79.0286 302° West 440 506 25,600 -2,220 Descending Miami Center
06:24PM 25.0867 -79.1397 299° West 427 491 23,200 -2,280 Descending Miami Center
06:25PM 25.1436 -79.2464 301° West 415 478 21,100 -2,100 Descending Miami Center
06:26PM 25.1961 -79.3506 299° West 410 472 19,000 -2,040 Descending Miami Center
06:27PM 25.2547 -79.4644 300° West 380 437 17,100 -2,100 Descending Miami Center
06:28PM 25.3053 -79.5619 300° West 363 418 14,900 -2,040 Descending Miami Center
06:29PM 25.3536 -79.6597 299° West 354 407 13,000 -1,740 Descending Miami Center
06:30PM 25.3981 -79.7367 303° West 355 409 11,500 -1,440 Descending Miami Center
06:31PM 25.4508 -79.8183 306° West 341 392 10,200 -1,020 Descending Miami Center
06:32PM 25.4972 -79.8931 305° West 316 364 9,500 -720 Descending Miami Center
06:33PM 25.5442 -79.9564 309° West 289 333 8,800 -720 Descending Miami Center
06:34PM 25.5883 -80.0314 303° West 242 278 8,000 -480 Descending Miami Center
06:35PM 25.6231 -80.0761 311° West 250 288 7,900 -60 Descending Miami Center
06:36PM 25.6592 -80.1369 303° West 245 282 7,900 -120 Level Miami Center
06:37PM 25.6822 -80.2297 285° West 217 250 7,700 -600 Descending Miami Center
06:38PM 25.6975 -80.2925 285° West 216 249 6,600 -1,140 Descending Miami Center
06:39PM 25.7042 -80.3617 276° West 216 249 5,500 -1,140 Descending Miami Center
06:40PM 25.7047 -80.4217 271° West 215 247 4,500 -840 Descending Miami Center
06:41PM 25.7033 -80.4886 269° West 210 242 3,900 -660 Descending Miami Center
06:42PM 25.7144 -80.5419 283° West 193 222 3,200 -480 Descending Miami Center
06:43PM 25.7586 -80.5317 12° North 179 206 3,000 -240 Descending Miami Center
06:44PM 25.7786 -80.4817 66° East 180 207 2,800 -600 Descending Miami Center
06:45PM 25.7800 -80.4239 88° East 167 192 1,800 -840 Descending Miami Center
06:46PM 25.7789 -80.3800 92° East 132 152 1,100 -720 Descending Miami Center
06:47PM 25.7819 -80.3433 85° East 129 148 500 -660 Descending Miami Center